Time;durP1;ratioP1;P1;durP2;ratioP2;P2;SDS_P1;SDS_P2;PMS_P1;PMS_P2;Temp;Humidity;BMP_temperature;BMP_pressure;BME280_temperature;BME280_humidity;BME280_pressure;Samples;Min_cycle;Max_cycle;Signal;HPM_P1;HPM_P2
2021/05/07 00:02:08;;;;;;;9.77;8.97;;;;;;;6.74;83.15;99425.91;5082792;28;20245;-77
2021/05/07 00:04:34;;;;;;;9.40;8.70;;;;;;;6.78;83.45;99431.00;5081664;28;20208;-77
2021/05/07 00:07:00;;;;;;;8.93;8.30;;;;;;;6.78;81.34;99423.22;5083158;28;20301;-77
2021/05/07 00:09:27;;;;;;;8.87;8.17;;;;;;;6.78;81.90;99426.72;5082742;28;20291;-77
2021/05/07 00:11:53;;;;;;;9.10;8.40;;;;;;;6.75;82.49;99427.59;5082913;28;20299;-76
2021/05/07 00:14:19;;;;;;;9.23;8.30;;;;;;;6.71;82.58;99438.06;5083107;28;20213;-77
2021/05/07 00:16:45;;;;;;;8.80;8.10;;;;;;;6.77;81.52;99430.16;5082414;28;20204;-77
2021/05/07 00:19:11;;;;;;;7.87;7.17;;;;;;;6.80;80.26;99422.34;5082540;28;20206;-77
2021/05/07 00:21:38;;;;;;;8.20;7.70;;;;;;;6.81;80.59;99421.44;5082785;28;20212;-77
2021/05/07 00:24:05;;;;;;;8.93;8.23;;;;;;;6.86;80.26;99429.16;5082801;28;20295;-76
2021/05/07 00:26:32;;;;;;;8.27;7.67;;;;;;;6.79;81.78;99424.97;5083398;28;20269;-77
2021/05/07 00:28:57;;;;;;;8.30;7.70;;;;;;;6.84;81.18;99426.59;5082863;28;20227;-77
2021/05/07 00:31:23;;;;;;;8.03;7.53;;;;;;;6.90;81.34;99423.84;5083275;28;20622;-77
2021/05/07 00:33:49;;;;;;;7.67;7.17;;;;;;;6.74;80.95;99425.91;5082645;28;20206;-77
2021/05/07 00:36:15;;;;;;;9.30;8.63;;;;;;;6.49;82.60;99432.44;5082639;28;20236;-77
2021/05/07 00:38:41;;;;;;;9.03;8.43;;;;;;;6.16;83.00;99439.91;5085286;28;20258;-77
2021/05/07 00:41:07;;;;;;;10.60;9.70;;;;;;;5.64;85.50;99440.75;5086280;28;20642;-77
2021/05/07 00:43:33;;;;;;;11.30;10.50;;;;;;;5.39;86.46;99448.84;5086124;28;20203;-77
2021/05/07 00:45:59;;;;;;;10.87;9.93;;;;;;;5.33;87.01;99447.22;5086364;28;20263;-77
2021/05/07 00:48:26;;;;;;;10.73;9.83;;;;;;;5.38;87.40;99440.22;5085757;28;20722;-77
2021/05/07 00:50:52;;;;;;;11.27;10.37;;;;;;;5.62;86.92;99442.50;5085369;28;20212;-76
2021/05/07 00:53:20;;;;;;;12.60;10.23;;;;;;;5.80;87.15;99439.63;5086031;28;20589;-76
2021/05/07 00:55:46;;;;;;;10.57;9.87;;;;;;;6.00;86.29;99435.88;5087064;28;20644;-77
2021/05/07 00:58:11;;;;;;;10.13;9.33;;;;;;;6.11;85.40;99437.41;5085542;28;20227;-77
2021/05/07 01:00:38;;;;;;;9.93;9.23;;;;;;;6.18;85.22;99434.72;5086542;28;20614;-77
2021/05/07 01:03:05;;;;;;;10.53;9.77;;;;;;;6.11;85.13;99437.41;5085865;28;20235;-77
2021/05/07 01:05:31;;;;;;;12.47;11.40;;;;;;;6.09;85.00;99441.78;5086661;28;20200;-76
2021/05/07 01:07:57;;;;;;;13.47;12.40;;;;;;;6.08;84.96;99445.22;5086362;28;20223;-77
2021/05/07 01:10:24;;;;;;;13.80;12.80;;;;;;;6.01;85.69;99443.63;5085658;28;20210;-77
2021/05/07 01:12:50;;;;;;;15.30;14.13;;;;;;;5.91;85.90;99439.47;5085747;28;20213;-76
2021/05/07 01:15:20;;;;;;;14.97;13.73;;;;;;;6.09;86.07;99434.00;5085034;28;20670;-77
2021/05/07 01:17:49;;;;;;;14.87;13.77;;;;;;;6.04;85.46;99428.03;5084868;28;20768;-77
2021/05/07 01:20:17;;;;;;;15.20;14.10;;;;;;;6.06;85.33;99435.78;5084877;28;20238;-77
2021/05/07 01:22:45;;;;;;;15.37;14.23;;;;;;;5.97;85.49;99437.66;5084373;28;20203;-76
2021/05/07 01:25:13;;;;;;;15.57;14.33;;;;;;;6.13;85.30;99435.66;5084679;28;20240;-77
2021/05/07 01:27:40;;;;;;;14.20;13.20;;;;;;;6.26;85.06;99438.88;5084060;28;20266;-77
2021/05/07 01:30:09;;;;;;;12.93;11.83;;;;;;;6.31;84.81;99437.06;5084757;28;20214;-77
2021/05/07 01:32:36;;;;;;;13.47;12.43;;;;;;;6.39;84.74;99433.50;5084602;28;20686;-75
2021/05/07 01:35:03;;;;;;;14.40;13.37;;;;;;;6.43;84.33;99441.19;5084598;28;20210;-77
2021/05/07 01:37:30;;;;;;;14.03;13.03;;;;;;;6.50;83.76;99437.59;5085041;28;20273;-76
2021/05/07 01:39:56;;;;;;;14.93;13.70;;;;;;;6.55;83.51;99432.31;5084447;28;20277;-76
2021/05/07 01:42:21;;;;;;;14.73;13.63;;;;;;;6.49;83.11;99432.44;5084646;28;20734;-77
2021/05/07 01:44:47;;;;;;;15.30;13.97;;;;;;;6.23;84.12;99441.53;5084306;28;20310;-75
2021/05/07 01:47:13;;;;;;;14.87;13.77;;;;;;;5.97;84.88;99442.81;5085235;28;20753;-77
2021/05/07 01:49:39;;;;;;;15.97;14.57;;;;;;;5.90;85.54;99438.59;5085276;28;20184;-76
2021/05/07 01:52:05;;;;;;;15.27;14.03;;;;;;;5.84;85.49;99446.44;5084724;28;20379;-76
2021/05/07 01:54:32;;;;;;;15.83;14.63;;;;;;;5.70;86.21;99454.44;5085017;28;20259;-76
2021/05/07 01:56:58;;;;;;;15.40;14.20;;;;;;;5.74;86.36;99455.25;5083435;28;20643;-76
2021/05/07 01:59:24;;;;;;;15.10;13.90;;;;;;;5.92;86.15;99447.19;5083981;28;20430;-77
2021/05/07 02:01:50;;;;;;;14.10;13.10;;;;;;;6.06;85.71;99452.19;5084109;28;20239;-76
2021/05/07 02:04:15;;;;;;;15.40;14.03;;;;;;;6.10;85.39;99453.84;5082814;28;21033;-76
2021/05/07 02:06:41;;;;;;;15.13;13.93;;;;;;;6.12;85.42;99454.66;5083753;28;20224;-77
2021/05/07 02:09:07;;;;;;;15.17;14.00;;;;;;;6.06;85.12;99464.28;5083518;28;20204;-76
2021/05/07 02:11:34;;;;;;;16.07;14.80;;;;;;;5.92;85.81;99469.66;5083634;28;20243;-76
2021/05/07 02:14:00;;;;;;;16.37;15.03;;;;;;;5.62;86.29;99463.22;5082594;28;20216;-76
2021/05/07 02:16:28;;;;;;;16.57;15.17;;;;;;;5.76;86.83;99466.44;5083402;28;20227;-76
2021/05/07 02:18:54;;;;;;;15.57;14.37;;;;;;;5.73;86.63;99467.34;5083118;28;20729;-76
2021/05/07 02:21:19;;;;;;;15.57;14.40;;;;;;;5.82;86.20;99466.34;5084257;28;20238;-76
2021/05/07 02:23:45;;;;;;;15.10;13.77;;;;;;;5.93;85.93;99477.41;5083059;28;20208;-75
2021/05/07 02:26:11;;;;;;;16.60;15.37;;;;;;;5.43;87.25;99473.81;5083465;28;20310;-76
2021/05/07 02:28:38;;;;;;;16.43;15.20;;;;;;;5.60;87.93;99480.50;5083053;28;20256;-76
2021/05/07 02:31:03;;;;;;;16.60;15.20;;;;;;;5.53;88.62;99484.88;5083723;28;20234;-76
2021/05/07 02:33:29;;;;;;;16.90;15.50;;;;;;;5.17;89.18;99487.06;5083157;28;20327;-75
2021/05/07 02:35:56;;;;;;;16.13;14.67;;;;;;;5.04;89.29;99493.28;5083074;28;20210;-75
2021/05/07 02:38:21;;;;;;;14.33;13.17;;;;;;;4.72;88.74;99500.53;5083406;28;20227;-76
2021/05/07 02:40:47;;;;;;;12.57;11.57;;;;;;;4.74;87.47;99500.50;5083480;28;20290;-76
2021/05/07 02:43:13;;;;;;;13.07;11.97;;;;;;;4.66;88.07;99499.72;5084054;28;20403;-75
2021/05/07 02:45:40;;;;;;;13.57;12.47;;;;;;;4.30;88.82;99499.19;5083940;28;20290;-76
2021/05/07 02:48:06;;;;;;;13.40;12.40;;;;;;;4.28;89.18;99504.41;5082921;28;20751;-75
2021/05/07 02:50:32;;;;;;;11.73;10.93;;;;;;;4.21;88.56;99505.31;5084800;28;20294;-75
2021/05/07 02:52:58;;;;;;;12.60;11.70;;;;;;;4.17;88.51;99504.47;5084039;28;20291;-75
2021/05/07 02:55:23;;;;;;;13.07;12.07;;;;;;;4.16;88.57;99507.06;5083793;28;20204;-74
2021/05/07 02:57:50;;;;;;;14.33;13.33;;;;;;;4.19;89.76;99509.63;5083317;28;20258;-75
2021/05/07 03:00:17;;;;;;;12.83;11.73;;;;;;;4.11;89.92;99520.00;5083396;28;20772;-76
2021/05/07 03:02:44;;;;;;;11.13;10.23;;;;;;;3.89;88.96;99521.91;5082561;28;20678;-73
2021/05/07 03:05:10;;;;;;;11.63;10.73;;;;;;;3.76;89.87;99521.09;5083278;28;20692;-75
2021/05/07 03:07:36;;;;;;;12.60;11.60;;;;;;;3.68;90.51;99524.59;5083845;28;20255;-75
2021/05/07 03:10:02;;;;;;;15.07;13.87;;;;;;;3.61;91.27;99530.66;5083280;28;20237;-75
2021/05/07 03:12:28;;;;;;;14.73;13.63;;;;;;;3.79;91.63;99528.00;5083726;28;20648;-74
2021/05/07 03:14:54;;;;;;;15.87;14.47;;;;;;;3.86;92.17;99531.38;5083040;28;20196;-75
2021/05/07 03:17:20;;;;;;;12.10;11.20;;;;;;;3.82;90.83;99543.44;5083435;28;20314;-75
2021/05/07 03:19:47;;;;;;;10.87;10.07;;;;;;;3.78;90.39;99547.75;5082818;28;20294;-74
2021/05/07 03:22:13;;;;;;;9.03;8.33;;;;;;;3.49;88.79;99545.34;5083036;28;20235;-74
2021/05/07 03:24:39;;;;;;;10.33;9.53;;;;;;;3.41;90.22;99556.53;5083257;28;20298;-74
2021/05/07 03:27:05;;;;;;;10.33;9.43;;;;;;;3.10;90.50;99557.53;5083223;28;20341;-74
2021/05/07 03:29:31;;;;;;;12.83;11.73;;;;;;;3.23;91.13;99558.34;5082971;28;20243;-74
2021/05/07 03:31:57;;;;;;;14.37;13.27;;;;;;;3.31;92.15;99571.19;5083377;28;20223;-75
2021/05/07 03:34:22;;;;;;;13.70;12.60;;;;;;;3.32;92.37;99571.19;5082357;28;20301;-74
2021/05/07 03:36:49;;;;;;;11.73;10.83;;;;;;;3.37;92.04;99578.94;5083423;28;20196;-75
2021/05/07 03:39:15;;;;;;;10.23;9.43;;;;;;;3.35;91.11;99578.06;5082557;28;20657;-74
2021/05/07 03:41:41;;;;;;;9.53;8.80;;;;;;;3.51;91.10;99584.06;5082962;28;20290;-74
2021/05/07 03:44:07;;;;;;;9.47;8.77;;;;;;;3.57;90.76;99590.03;5082650;28;20203;-75
2021/05/07 03:46:33;;;;;;;7.37;6.87;;;;;;;3.41;90.14;99595.25;5082318;28;20262;-74
2021/05/07 03:48:59;;;;;;;7.20;6.70;;;;;;;3.28;90.13;99597.00;5082343;28;20253;-74
2021/05/07 03:51:24;;;;;;;7.80;7.20;;;;;;;3.11;89.60;99609.94;5082946;28;20808;-74
2021/05/07 03:53:51;;;;;;;7.17;6.67;;;;;;;3.14;90.33;99615.09;5082163;28;20509;-74
2021/05/07 03:56:17;;;;;;;7.93;7.33;;;;;;;3.19;90.29;99608.19;5082917;28;20273;-75
2021/05/07 03:58:43;;;;;;;7.70;7.10;;;;;;;3.05;89.72;99615.09;5082018;28;20255;-75
2021/05/07 04:01:09;;;;;;;8.53;7.83;;;;;;;2.94;90.47;99622.88;5083151;28;20494;-75
2021/05/07 04:03:35;;;;;;;8.03;7.33;;;;;;;2.73;91.02;99627.16;5082313;28;20293;-75
2021/05/07 04:06:01;;;;;;;8.57;7.87;;;;;;;2.60;91.87;99635.78;5082652;28;20239;-75
2021/05/07 04:08:29;;;;;;;7.67;7.13;;;;;;;2.53;91.96;99634.03;5082616;28;20233;-75
2021/05/07 04:11:01;;;;;;;9.47;8.67;;;;;;;2.63;92.00;99640.91;5082294;28;20208;-75
2021/05/07 04:13:38;;;;;;;8.83;8.13;;;;;;;2.73;91.36;99639.19;5084512;28;20687;-75
2021/05/07 04:16:05;;;;;;;8.20;7.60;;;;;;;2.57;91.09;99652.06;5086583;28;20234;-76
2021/05/07 04:18:31;;;;;;;8.73;8.03;;;;;;;2.53;91.66;99644.34;5086036;28;20262;-75
2021/05/07 04:20:57;;;;;;;8.80;8.07;;;;;;;2.51;92.04;99657.22;5085897;28;20208;-75
2021/05/07 04:23:23;;;;;;;9.07;8.37;;;;;;;2.55;91.71;99658.09;5086110;28;20245;-75
2021/05/07 04:25:50;;;;;;;8.70;7.90;;;;;;;2.57;92.70;99661.53;5085835;28;20579;-75
2021/05/07 04:28:17;;;;;;;8.13;7.43;;;;;;;2.62;92.43;99669.25;5086251;28;21000;-75
2021/05/07 04:30:43;;;;;;;8.07;7.47;;;;;;;2.62;91.94;99664.97;5086458;28;20202;-75
2021/05/07 04:33:09;;;;;;;8.53;7.77;;;;;;;2.48;91.76;99670.09;5085033;28;20587;-75
2021/05/07 04:35:35;;;;;;;8.87;8.17;;;;;;;2.51;91.98;99679.53;5086086;28;20244;-75
2021/05/07 04:38:01;;;;;;;8.80;8.00;;;;;;;2.48;91.77;99676.94;5086465;28;20585;-76
2021/05/07 04:40:27;;;;;;;8.70;8.00;;;;;;;2.59;92.35;99678.69;5085503;28;20206;-76
2021/05/07 04:42:53;;;;;;;8.93;8.23;;;;;;;2.56;91.60;99688.16;5086168;28;20214;-75
2021/05/07 04:45:20;;;;;;;9.70;8.90;;;;;;;2.59;91.48;99683.00;5085573;28;20683;-75
2021/05/07 04:47:46;;;;;;;8.73;7.93;;;;;;;2.54;91.74;99690.72;5084672;28;20262;-74
2021/05/07 04:50:14;;;;;;;9.20;8.40;;;;;;;2.63;92.10;99692.44;5085476;28;20284;-75
2021/05/07 04:52:40;;;;;;;10.00;9.20;;;;;;;2.79;92.22;99695.88;5085175;28;20672;-75
2021/05/07 04:55:07;;;;;;;8.90;8.13;;;;;;;2.88;92.27;99697.63;5085266;28;20208;-75
2021/05/07 04:57:33;;;;;;;8.60;7.90;;;;;;;3.04;91.57;99695.91;5083811;28;20788;-75
2021/05/07 04:59:59;;;;;;;6.67;6.17;;;;;;;3.11;91.52;99700.19;5084910;28;20293;-76
2021/05/07 05:02:26;;;;;;;5.80;5.40;;;;;;;3.29;90.70;99701.88;5084983;28;20222;-75
2021/05/07 05:04:52;;;;;;;5.90;5.40;;;;;;;3.37;90.94;99707.91;5083861;28;20281;-76
2021/05/07 05:07:18;;;;;;;5.90;5.40;;;;;;;3.26;90.82;99713.06;5084982;28;20581;-75
2021/05/07 05:09:44;;;;;;;5.70;5.30;;;;;;;3.20;91.17;99705.34;5084191;28;20204;-75
2021/05/07 05:12:10;;;;;;;6.27;5.77;;;;;;;3.23;89.78;99710.50;5085393;28;20235;-75
2021/05/07 05:14:36;;;;;;;6.80;6.20;;;;;;;3.33;90.16;99714.78;5083797;28;20222;-75
2021/05/07 05:17:02;;;;;;;7.07;6.57;;;;;;;3.46;89.10;99712.19;5084823;28;20854;-74
2021/05/07 05:19:29;;;;;;;6.80;6.10;;;;;;;3.40;89.75;99717.38;5083555;28;20218;-76
2021/05/07 05:21:54;;;;;;;7.47;6.87;;;;;;;3.40;89.60;99715.63;5084655;28;20208;-75
2021/05/07 05:24:20;;;;;;;7.37;6.87;;;;;;;3.34;89.30;99721.66;5084252;28;20257;-76
2021/05/07 05:26:46;;;;;;;7.80;7.30;;;;;;;3.40;89.40;99725.09;5084157;28;20232;-76
2021/05/07 05:29:13;;;;;;;8.43;7.83;;;;;;;3.35;89.80;99725.09;5084713;28;20286;-75
2021/05/07 05:31:39;;;;;;;8.63;7.93;;;;;;;3.49;90.43;99730.22;5084763;28;20701;-76
2021/05/07 05:34:05;;;;;;;9.33;8.53;;;;;;;3.68;89.69;99729.34;5083960;28;20236;-75
2021/05/07 05:36:31;;;;;;;9.77;8.97;;;;;;;3.70;89.60;99731.91;5085108;28;20855;-76
2021/05/07 05:38:57;;;;;;;9.13;8.53;;;;;;;3.73;88.99;99731.91;5084297;28;20232;-76
2021/05/07 05:41:23;;;;;;;10.20;9.43;;;;;;;3.78;89.59;99730.16;5084246;28;20222;-75
2021/05/07 05:43:49;;;;;;;11.27;10.27;;;;;;;3.78;88.77;99732.75;5083822;28;20206;-76
2021/05/07 05:46:15;;;;;;;11.33;10.53;;;;;;;3.78;88.77;99738.75;5084081;28;20262;-76
2021/05/07 05:48:41;;;;;;;12.20;11.30;;;;;;;3.83;89.04;99748.25;5083745;28;21122;-75
2021/05/07 05:51:07;;;;;;;11.90;11.00;;;;;;;3.85;88.31;99747.38;5083708;28;20700;-76
2021/05/07 05:53:34;;;;;;;13.13;12.13;;;;;;;3.86;88.13;99743.91;5083891;28;20662;-76
2021/05/07 05:56:00;;;;;;;12.77;11.70;;;;;;;3.83;88.26;99750.81;5083596;28;20200;-76
2021/05/07 05:58:30;;;;;;;13.97;12.87;;;;;;;3.68;87.85;99755.13;5084196;28;20234;-76
2021/05/07 06:00:56;;;;;;;13.97;12.87;;;;;;;3.68;88.40;99757.72;5084512;28;20220;-76
2021/05/07 06:03:22;;;;;;;15.33;14.00;;;;;;;3.77;88.55;99759.44;5083120;28;20220;-75
2021/05/07 06:05:48;;;;;;;14.13;13.03;;;;;;;3.74;88.19;99765.44;5084135;28;20212;-76
2021/05/07 06:08:13;;;;;;;15.00;13.80;;;;;;;3.79;88.41;99773.19;5083117;28;20235;-76
2021/05/07 06:10:40;;;;;;;15.83;14.53;;;;;;;4.02;88.83;99769.69;5083553;28;20306;-75
2021/05/07 06:13:06;;;;;;;15.70;14.50;;;;;;;4.03;87.87;99780.03;5083834;28;20251;-76
2021/05/07 06:15:32;;;;;;;15.43;14.07;;;;;;;4.18;88.85;99779.09;5083732;28;20200;-76
2021/05/07 06:17:58;;;;;;;16.20;14.80;;;;;;;4.23;88.28;99777.38;5084014;28;20257;-75
2021/05/07 06:20:24;;;;;;;16.87;15.47;;;;;;;4.31;87.73;99775.59;5082424;28;20295;-76
2021/05/07 06:22:50;;;;;;;16.27;14.97;;;;;;;4.44;87.48;99783.31;5083770;28;20212;-76
2021/05/07 06:25:17;;;;;;;16.50;15.20;;;;;;;4.49;86.92;99785.00;5084334;28;20584;-76
2021/05/07 06:27:44;;;;;;;15.30;14.10;;;;;;;4.61;87.33;99789.25;5083796;28;21233;-75
2021/05/07 06:30:13;;;;;;;15.17;13.87;;;;;;;4.63;85.58;99784.94;5083518;28;20211;-75
2021/05/07 06:32:40;;;;;;;14.93;13.73;;;;;;;4.55;84.77;99790.13;5083192;28;20253;-74
2021/05/07 06:35:07;;;;;;;14.47;13.33;;;;;;;4.49;85.29;99789.31;5083454;28;20200;-76
2021/05/07 06:37:33;;;;;;;16.93;15.53;;;;;;;4.66;85.38;99792.69;5083713;28;20252;-75
2021/05/07 06:39:59;;;;;;;15.23;14.03;;;;;;;4.66;84.58;99786.63;5082958;28;20734;-75
2021/05/07 06:42:25;;;;;;;16.87;15.47;;;;;;;4.72;85.72;99796.97;5083260;28;20212;-75
2021/05/07 06:44:52;;;;;;;13.40;12.27;;;;;;;4.69;84.26;99794.38;5083027;28;20235;-75
2021/05/07 06:47:18;;;;;;;15.07;13.97;;;;;;;4.70;84.39;99801.28;5082917;28;20256;-75
2021/05/07 06:49:44;;;;;;;15.57;14.37;;;;;;;4.67;84.38;99806.47;5083468;28;20315;-75
2021/05/07 06:52:10;;;;;;;14.00;12.90;;;;;;;4.76;83.49;99815.03;5083264;28;20205;-75
2021/05/07 06:54:36;;;;;;;14.13;12.73;;;;;;;4.80;83.50;99815.88;5082870;28;20215;-75
2021/05/07 06:57:02;;;;;;;15.37;14.17;;;;;;;4.74;84.31;99821.94;5082845;28;20273;-75
2021/05/07 06:59:28;;;;;;;15.70;14.50;;;;;;;4.71;84.54;99816.75;5083145;28;20986;-75
2021/05/07 07:01:56;;;;;;;13.40;12.40;;;;;;;4.65;83.79;99824.56;5083213;28;20242;-75
2021/05/07 07:04:22;;;;;;;12.80;11.80;;;;;;;4.70;83.10;99824.56;5082991;28;20241;-75
2021/05/07 07:06:48;;;;;;;12.07;11.07;;;;;;;4.73;83.15;99827.09;5083063;28;20232;-75
2021/05/07 07:09:15;;;;;;;11.87;10.93;;;;;;;4.75;82.89;99831.38;5083261;28;20208;-76
2021/05/07 07:11:41;;;;;;;12.33;11.33;;;;;;;4.90;82.76;99827.88;5082965;28;20700;-75
2021/05/07 07:14:07;;;;;;;11.87;10.87;;;;;;;4.83;82.71;99833.94;5082659;28;20525;-75
2021/05/07 07:16:33;;;;;;;9.47;8.77;;;;;;;4.86;80.58;99839.13;5082625;28;20196;-75
2021/05/07 07:19:00;;;;;;;9.70;8.80;;;;;;;5.03;81.29;99831.25;5082061;28;20223;-75
2021/05/07 07:21:26;;;;;;;9.43;8.73;;;;;;;5.08;79.54;99826.91;5081406;28;20219;-75
2021/05/07 07:23:52;;;;;;;9.53;8.83;;;;;;;5.12;79.53;99838.94;5082620;28;20200;-76
2021/05/07 07:26:18;;;;;;;9.10;8.40;;;;;;;5.17;79.54;99837.22;5082136;28;20738;-75
2021/05/07 07:28:46;;;;;;;8.73;8.13;;;;;;;5.27;79.95;99838.00;5080916;28;20717;-75
2021/05/07 07:31:11;;;;;;;9.60;8.83;;;;;;;5.34;80.04;99841.41;5082764;28;20200;-75
2021/05/07 07:33:37;;;;;;;8.10;7.47;;;;;;;5.26;78.73;99840.59;5081822;28;20214;-75
2021/05/07 07:36:05;;;;;;;7.80;7.20;;;;;;;5.29;77.58;99848.31;5082635;28;20235;-75
2021/05/07 07:38:30;;;;;;;8.13;7.53;;;;;;;5.41;77.68;99848.25;5082103;28;20255;-75
2021/05/07 07:40:56;;;;;;;8.50;7.90;;;;;;;5.31;78.26;99856.94;5081678;28;20224;-75
2021/05/07 07:43:22;;;;;;;7.00;6.50;;;;;;;5.37;77.05;99865.53;5081837;28;20678;-75
2021/05/07 07:45:49;;;;;;;6.93;6.37;;;;;;;5.47;77.54;99853.38;5082925;28;20238;-75
2021/05/07 07:48:15;;;;;;;6.00;5.40;;;;;;;5.63;75.93;99850.66;5085451;28;20313;-75
2021/05/07 07:50:41;;;;;;;7.07;6.40;;;;;;;5.75;76.08;99860.94;5086304;28;20243;-75
2021/05/07 07:53:08;;;;;;;6.00;5.40;;;;;;;5.89;75.87;99869.44;5085574;28;20215;-75
2021/05/07 07:55:34;;;;;;;7.47;6.87;;;;;;;5.81;76.42;99873.81;5085558;28;20655;-75
2021/05/07 07:57:59;;;;;;;6.27;5.77;;;;;;;5.65;75.93;99875.69;5086116;28;20226;-75
2021/05/07 08:00:25;;;;;;;7.50;6.97;;;;;;;5.71;77.70;99882.53;5086900;28;20320;-75
2021/05/07 08:02:51;;;;;;;6.67;6.07;;;;;;;5.45;76.11;99893.94;5086190;28;20652;-75
2021/05/07 08:05:18;;;;;;;7.23;6.63;;;;;;;5.44;77.09;99901.72;5086847;28;20200;-75
2021/05/07 08:07:45;;;;;;;7.53;7.03;;;;;;;5.56;77.71;99899.03;5084883;28;20232;-75
2021/05/07 08:10:14;;;;;;;7.20;6.60;;;;;;;5.66;76.47;99902.41;5086159;28;20553;-75
2021/05/07 08:12:40;;;;;;;6.67;6.17;;;;;;;5.63;77.04;99905.00;5085895;28;20220;-75
2021/05/07 08:15:07;;;;;;;6.87;6.33;;;;;;;5.80;75.93;99905.75;5086162;28;20437;-76
2021/05/07 08:17:33;;;;;;;6.43;6.00;;;;;;;5.68;75.98;99911.03;5085879;28;20775;-75
2021/05/07 08:19:59;;;;;;;6.87;6.37;;;;;;;5.55;76.80;99916.31;5085502;28;20698;-76
2021/05/07 08:22:25;;;;;;;7.20;6.60;;;;;;;5.61;76.64;99920.59;5086076;28;20204;-74
2021/05/07 08:24:51;;;;;;;7.60;7.00;;;;;;;5.75;77.29;99921.34;5085461;28;20282;-74
2021/05/07 08:27:20;;;;;;;6.83;6.33;;;;;;;5.67;76.81;99938.66;5085514;28;20662;-75
2021/05/07 08:29:46;;;;;;;6.20;5.70;;;;;;;5.68;76.04;99932.59;5085706;28;20212;-75
2021/05/07 08:32:11;;;;;;;6.23;5.80;;;;;;;5.76;76.37;99948.09;5085960;28;20486;-74
2021/05/07 08:34:41;;;;;;;5.93;5.53;;;;;;;5.75;75.77;99951.56;5085344;28;20583;-75
2021/05/07 08:37:07;;;;;;;6.53;6.03;;;;;;;5.79;75.62;99950.66;5085561;28;20216;-75
2021/05/07 08:39:33;;;;;;;6.10;5.70;;;;;;;5.82;75.00;99955.81;5085474;28;20674;-74
2021/05/07 08:41:59;;;;;;;5.50;5.10;;;;;;;5.78;75.01;99961.88;5085941;28;20281;-75
2021/05/07 08:44:26;;;;;;;5.70;5.20;;;;;;;5.91;75.25;99971.28;5085625;28;20248;-75
2021/05/07 08:46:54;;;;;;;4.90;4.60;;;;;;;5.70;74.50;99980.06;5085458;28;20711;-75
2021/05/07 08:49:23;;;;;;;5.60;5.20;;;;;;;5.70;74.13;99982.66;5085046;28;20952;-75
2021/05/07 08:51:49;;;;;;;4.70;4.23;;;;;;;5.73;73.72;99987.81;5084867;28;20379;-75
2021/05/07 08:54:15;;;;;;;3.97;3.67;;;;;;;5.74;72.32;99991.25;5085685;28;20290;-75
2021/05/07 08:56:41;;;;;;;3.77;3.47;;;;;;;5.57;72.46;99993.97;5084950;28;20211;-74
2021/05/07 08:59:07;;;;;;;3.60;3.30;;;;;;;5.57;72.10;99994.81;5084435;28;20204;-75
2021/05/07 09:01:45;;;;;;;3.90;3.60;;;;;;;5.67;72.10;100005.09;5083468;28;20299;-75
2021/05/07 09:04:12;;;;;;;3.57;3.37;;;;;;;5.69;72.45;100008.53;5084412;28;20204;-75
2021/05/07 09:06:40;;;;;;;4.07;3.77;;;;;;;5.56;72.51;100006.03;5084659;28;20228;-75
2021/05/07 09:09:16;;;;;;;4.00;3.70;;;;;;;5.71;71.90;100004.25;5084921;28;20227;-74
2021/05/07 09:11:43;;;;;;;3.37;3.07;;;;;;;5.92;71.28;100008.41;5085105;28;20634;-75
2021/05/07 09:14:08;;;;;;;3.67;3.33;;;;;;;6.07;71.08;100010.06;5084077;28;20681;-75
2021/05/07 09:16:34;;;;;;;2.43;2.10;;;;;;;6.11;67.55;100015.22;4381979;27;10000729;-74
2021/05/07 09:19:01;;;;;;;3.50;3.20;;;;;;;6.19;69.20;100015.16;5080933;28;20200;-75
2021/05/07 09:21:27;;;;;;;3.03;2.83;;;;;;;6.28;68.82;100015.09;5081721;28;20920;-74
2021/05/07 09:23:53;;;;;;;3.20;3.00;;;;;;;6.20;67.64;100027.22;5081639;28;20982;-75
2021/05/07 09:26:18;;;;;;;3.10;2.90;;;;;;;6.33;70.97;100023.66;5081321;28;20820;-75
2021/05/07 09:28:51;;;;;;;3.97;3.77;;;;;;;6.31;67.63;100032.34;5081554;28;20240;-75
2021/05/07 09:31:18;;;;;;;4.80;3.63;;;;;;;6.35;69.22;100036.63;5081676;28;20235;-74
2021/05/07 09:33:46;;;;;;;3.87;3.57;;;;;;;6.40;66.47;100034.84;5081531;28;20204;-74
2021/05/07 09:36:23;;;;;;;4.63;3.60;;;;;;;6.51;67.39;100034.75;5082239;28;20231;-74
2021/05/07 09:38:49;;;;;;;3.50;3.30;;;;;;;6.72;67.59;100034.56;5081514;28;20223;-75
2021/05/07 09:41:14;;;;;;;3.73;3.43;;;;;;;6.76;68.16;100036.25;5081762;28;20211;-75
2021/05/07 09:43:40;;;;;;;3.63;3.43;;;;;;;6.65;67.78;100043.28;5081389;28;20580;-75
2021/05/07 09:46:06;;;;;;;5.73;5.33;;;;;;;6.84;66.94;100046.56;5080609;28;20243;-75
2021/05/07 09:48:32;;;;;;;5.03;4.67;;;;;;;6.68;65.68;100050.16;5081405;28;20611;-75
2021/05/07 09:51:01;;;;;;;7.10;6.50;;;;;;;6.71;68.19;100060.50;5082000;28;20204;-76
2021/05/07 09:53:30;;;;;;;4.60;4.30;;;;;;;6.66;68.39;100051.91;5081924;28;21292;-75
2021/05/07 09:56:00;;;;;;;4.53;4.20;;;;;;;6.74;67.72;100055.31;5081019;28;20989;-75
2021/05/07 09:58:26;;;;;;;4.40;4.00;;;;;;;6.82;67.32;100052.59;5081664;28;20280;-75
2021/05/07 10:00:52;;;;;;;3.60;3.30;;;;;;;7.00;65.14;100056.75;5081805;28;20239;-74
2021/05/07 10:03:18;;;;;;;3.27;3.07;;;;;;;6.95;64.02;100054.22;5081280;28;20240;-76
2021/05/07 10:05:44;;;;;;;3.30;3.10;;;;;;;6.93;66.18;100054.22;5081596;28;20213;-75
2021/05/07 10:08:10;;;;;;;3.70;3.40;;;;;;;7.11;67.09;100062.69;5081704;28;20238;-75
2021/05/07 10:10:41;;;;;;;3.50;3.20;;;;;;;6.89;67.41;100067.25;5081311;28;20706;-75
2021/05/07 10:13:10;;;;;;;3.27;3.07;;;;;;;7.14;67.56;100075.66;5081189;28;20224;-75
2021/05/07 10:15:37;;;;;;;3.70;3.40;;;;;;;7.38;67.00;100077.13;5081482;28;20533;-75
2021/05/07 10:18:04;;;;;;;3.40;3.10;;;;;;;7.47;65.45;100079.59;5080607;28;20274;-76
2021/05/07 10:20:32;;;;;;;2.70;2.50;;;;;;;7.70;61.80;100074.09;5080206;28;20745;-75
2021/05/07 10:22:58;;;;;;;2.43;2.33;;;;;;;7.70;59.08;100089.69;5081510;28;20200;-75
2021/05/07 10:25:26;;;;;;;2.90;2.40;;;;;;;7.77;62.03;100085.31;5080727;28;20240;-75
2021/05/07 10:27:54;;;;;;;2.50;2.30;;;;;;;7.82;63.81;100090.41;5080705;28;20349;-75
2021/05/07 10:30:28;;;;;;;2.80;2.60;;;;;;;7.58;63.13;100099.41;5081473;28;20237;-74
2021/05/07 10:32:59;;;;;;;2.63;2.43;;;;;;;7.24;64.00;100098.03;5080801;28;20211;-76
2021/05/07 10:35:38;;;;;;;1.93;1.83;;;;;;;7.21;62.39;100105.00;5080936;28;20342;-75
2021/05/07 10:38:09;;;;;;;2.23;2.03;;;;;;;7.50;62.88;100102.94;5080554;28;20281;-75
2021/05/07 10:40:35;;;;;;;1.60;1.50;;;;;;;7.73;59.94;100093.97;5080481;28;20717;-75
2021/05/07 10:43:02;;;;;;;2.30;1.93;;;;;;;8.02;60.96;100096.19;5080830;28;20202;-75
2021/05/07 10:45:48;;;;;;;2.37;2.10;;;;;;;8.34;60.72;100102.66;5080208;28;20775;-75
2021/05/07 10:48:20;;;;;;;2.27;2.07;;;;;;;8.38;59.38;100096.53;5080317;28;20225;-75
2021/05/07 10:50:47;;;;;;;2.20;2.10;;;;;;;8.52;59.88;100098.94;5080496;28;20198;-75
2021/05/07 10:53:24;;;;;;;2.00;1.90;;;;;;;8.47;59.93;100104.22;5080930;28;20404;-76
2021/05/07 10:55:50;;;;;;;2.40;2.30;;;;;;;8.37;60.58;100106.97;5080048;28;20298;-76
2021/05/07 10:58:17;;;;;;;2.67;2.47;;;;;;;8.15;62.98;100115.94;5080377;28;20803;-75
2021/05/07 11:00:43;;;;;;;2.27;2.17;;;;;;;7.89;61.51;100124.09;5079976;28;20212;-75
2021/05/07 11:03:18;;;;;;;2.73;2.53;;;;;;;7.72;60.92;100123.44;5079894;28;20208;-76
2021/05/07 11:05:46;;;;;;;2.70;2.50;;;;;;;7.66;61.44;100123.53;5080768;28;20678;-75
2021/05/07 11:08:12;;;;;;;2.10;2.00;;;;;;;7.80;62.53;100124.22;5079911;28;20234;-75
2021/05/07 11:10:38;;;;;;;2.30;2.20;;;;;;;8.34;61.45;100128.66;5080371;28;20229;-76
2021/05/07 11:13:06;;;;;;;2.10;2.00;;;;;;;8.78;58.37;100118.47;5080013;28;20260;-75
2021/05/07 11:15:33;;;;;;;2.90;2.53;;;;;;;9.03;59.09;100122.38;5080149;28;20235;-76
2021/05/07 11:18:00;;;;;;;2.60;2.40;;;;;;;8.28;60.24;100133.97;5079930;28;20738;-75
2021/05/07 11:20:32;;;;;;;2.47;2.30;;;;;;;8.07;61.56;100145.53;5079558;28;20208;-75
2021/05/07 11:22:58;;;;;;;2.67;2.40;;;;;;;8.03;59.94;100146.47;5079958;28;20207;-75
2021/05/07 11:25:24;;;;;;;2.10;2.00;;;;;;;8.11;59.81;100155.00;5079969;28;20751;-76
2021/05/07 11:27:50;;;;;;;1.70;1.60;;;;;;;8.28;57.30;100162.56;5079650;28;20320;-75
2021/05/07 11:30:17;;;;;;;1.60;1.50;;;;;;;8.27;57.46;100160.88;5080812;28;20664;-76
2021/05/07 11:32:44;;;;;;;1.50;1.40;;;;;;;8.78;55.16;100167.94;5079918;28;20237;-76